sensor_id;sensor_type;location;lat;lon;timestamp;pressure;altitude;pressure_sealevel;temperature;humidity
7433;BME280;32233;49.500;7.764;2023-08-12T00:02:16;98679.72;;;17.64;100.00
7433;BME280;32233;49.500;7.764;2023-08-12T00:04:42;98682.97;;;17.66;100.00
7433;BME280;32233;49.500;7.764;2023-08-12T00:07:09;98684.56;;;17.67;100.00
7433;BME280;32233;49.500;7.764;2023-08-12T00:09:36;98678.41;;;17.66;100.00
7433;BME280;32233;49.500;7.764;2023-08-12T00:12:03;98681.34;;;17.65;100.00
7433;BME280;32233;49.500;7.764;2023-08-12T00:14:29;98671.47;;;17.65;100.00
7433;BME280;32233;49.500;7.764;2023-08-12T00:16:56;98667.72;;;17.66;100.00
7433;BME280;32233;49.500;7.764;2023-08-12T00:19:23;98670.41;;;17.66;100.00
7433;BME280;32233;49.500;7.764;2023-08-12T00:21:49;98670.41;;;17.66;100.00
7433;BME280;32233;49.500;7.764;2023-08-12T00:24:18;98669.13;;;17.69;100.00
7433;BME280;32233;49.500;7.764;2023-08-12T00:26:45;98669.13;;;17.69;100.00
7433;BME280;32233;49.500;7.764;2023-08-12T00:29:11;98671.13;;;17.62;100.00
7433;BME280;32233;49.500;7.764;2023-08-12T00:31:38;98668.94;;;17.58;100.00
7433;BME280;32233;49.500;7.764;2023-08-12T00:34:04;98667.56;;;17.56;100.00
7433;BME280;32233;49.500;7.764;2023-08-12T00:36:31;98660.09;;;17.58;100.00
7433;BME280;32233;49.500;7.764;2023-08-12T00:38:58;98663.16;;;17.50;100.00
7433;BME280;32233;49.500;7.764;2023-08-12T00:41:24;98660.66;;;17.43;100.00
7433;BME280;32233;49.500;7.764;2023-08-12T00:43:51;98672.00;;;17.50;100.00
7433;BME280;32233;49.500;7.764;2023-08-12T00:46:17;98667.06;;;17.59;100.00
7433;BME280;32233;49.500;7.764;2023-08-12T00:48:44;98663.91;;;17.62;100.00
7433;BME280;32233;49.500;7.764;2023-08-12T00:51:10;98663.44;;;17.65;100.00
7433;BME280;32233;49.500;7.764;2023-08-12T00:53:37;98674.38;;;17.64;100.00
7433;BME280;32233;49.500;7.764;2023-08-12T00:56:04;98679.72;;;17.64;100.00
7433;BME280;32233;49.500;7.764;2023-08-12T00:58:33;98685.06;;;17.64;100.00
7433;BME280;32233;49.500;7.764;2023-08-12T01:01:00;98685.69;;;17.54;100.00
7433;BME280;32233;49.500;7.764;2023-08-12T01:03:26;98695.56;;;17.53;100.00
7433;BME280;32233;49.500;7.764;2023-08-12T01:05:53;98697.19;;;17.54;100.00
7433;BME280;32233;49.500;7.764;2023-08-12T01:08:20;98695.78;;;17.64;100.00
7433;BME280;32233;49.500;7.764;2023-08-12T01:10:52;98705.06;;;17.61;100.00
7433;BME280;32233;49.500;7.764;2023-08-12T01:13:52;98706.94;;;17.61;100.00
7433;BME280;32233;49.500;7.764;2023-08-12T01:16:26;98706.00;;;17.55;100.00
7433;BME280;32233;49.500;7.764;2023-08-12T01:18:55;98711.47;;;17.60;100.00
7433;BME280;32233;49.500;7.764;2023-08-12T01:21:24;98712.28;;;17.61;100.00
7433;BME280;32233;49.500;7.764;2023-08-12T01:23:51;98709.81;;;17.59;100.00
7433;BME280;32233;49.500;7.764;2023-08-12T01:26:18;98712.41;;;17.54;100.00
7433;BME280;32233;49.500;7.764;2023-08-12T01:28:44;98704.22;;;17.44;100.00
7433;BME280;32233;49.500;7.764;2023-08-12T01:31:15;98708.31;;;17.34;100.00
7433;BME280;32233;49.500;7.764;2023-08-12T01:34:12;98717.28;;;17.28;100.00
7433;BME280;32233;49.500;7.764;2023-08-12T01:36:46;98710.00;;;17.24;100.00
7433;BME280;32233;49.500;7.764;2023-08-12T01:39:16;98713.94;;;17.21;100.00
7433;BME280;32233;49.500;7.764;2023-08-12T01:41:45;98717.00;;;17.13;100.00
7433;BME280;32233;49.500;7.764;2023-08-12T01:44:12;98716.78;;;17.15;100.00
7433;BME280;32233;49.500;7.764;2023-08-12T01:46:38;98728.72;;;17.12;100.00
7433;BME280;32233;49.500;7.764;2023-08-12T01:49:05;98719.44;;;17.15;100.00
7433;BME280;32233;49.500;7.764;2023-08-12T01:51:32;98725.34;;;17.17;100.00
7433;BME280;32233;49.500;7.764;2023-08-12T01:53:58;98735.34;;;17.09;100.00
7433;BME280;32233;49.500;7.764;2023-08-12T01:56:25;98738.81;;;17.10;100.00
7433;BME280;32233;49.500;7.764;2023-08-12T01:58:51;98736.28;;;17.15;100.00
7433;BME280;32233;49.500;7.764;2023-08-12T02:01:18;98740.09;;;17.19;100.00
7433;BME280;32233;49.500;7.764;2023-08-12T02:03:44;98745.44;;;17.19;100.00
7433;BME280;32233;49.500;7.764;2023-08-12T02:06:11;98741.47;;;17.22;100.00
7433;BME280;32233;49.500;7.764;2023-08-12T02:08:37;98750.50;;;17.32;100.00
7433;BME280;32233;49.500;7.764;2023-08-12T02:11:04;98746.31;;;17.37;100.00
7433;BME280;32233;49.500;7.764;2023-08-12T02:13:31;98742.34;;;17.39;100.00
7433;BME280;32233;49.500;7.764;2023-08-12T02:16:03;98733.38;;;17.45;100.00
7433;BME280;32233;49.500;7.764;2023-08-12T02:18:31;98738.19;;;17.31;100.00
7433;BME280;32233;49.500;7.764;2023-08-12T02:20:57;98725.56;;;17.27;100.00
7433;BME280;32233;49.500;7.764;2023-08-12T02:23:24;98719.38;;;17.26;100.00
7433;BME280;32233;49.500;7.764;2023-08-12T02:25:51;98709.66;;;17.20;100.00
7433;BME280;32233;49.500;7.764;2023-08-12T02:28:18;98710.38;;;17.16;100.00
7433;BME280;32233;49.500;7.764;2023-08-12T02:30:45;98687.94;;;17.17;100.00
7433;BME280;32233;49.500;7.764;2023-08-12T02:33:11;98676.22;;;17.18;100.00
7433;BME280;32233;49.500;7.764;2023-08-12T02:35:38;98672.25;;;17.20;100.00
7433;BME280;32233;49.500;7.764;2023-08-12T02:38:04;98669.84;;;17.19;100.00
7433;BME280;32233;49.500;7.764;2023-08-12T02:40:31;98651.59;;;17.16;100.00
7433;BME280;32233;49.500;7.764;2023-08-12T02:42:58;98653.13;;;17.12;100.00
7433;BME280;32233;49.500;7.764;2023-08-12T02:45:24;98650.47;;;17.12;100.00
7433;BME280;32233;49.500;7.764;2023-08-12T02:47:51;98654.19;;;17.11;100.00
7433;BME280;32233;49.500;7.764;2023-08-12T02:50:17;98666.16;;;17.08;100.00
7433;BME280;32233;49.500;7.764;2023-08-12T02:52:44;98670.69;;;17.07;100.00
7433;BME280;32233;49.500;7.764;2023-08-12T02:55:10;98673.34;;;17.07;100.00
7433;BME280;32233;49.500;7.764;2023-08-12T02:57:37;98671.97;;;17.05;100.00
7433;BME280;32233;49.500;7.764;2023-08-12T03:00:04;98686.94;;;17.06;100.00
7433;BME280;32233;49.500;7.764;2023-08-12T03:02:31;98682.97;;;17.08;100.00
7433;BME280;32233;49.500;7.764;2023-08-12T03:04:58;98680.75;;;17.17;100.00
7433;BME280;32233;49.500;7.764;2023-08-12T03:07:25;98677.72;;;17.14;100.00
7433;BME280;32233;49.500;7.764;2023-08-12T03:09:51;98668.81;;;17.08;100.00
7433;BME280;32233;49.500;7.764;2023-08-12T03:12:18;98667.94;;;17.02;100.00
7433;BME280;32233;49.500;7.764;2023-08-12T03:14:44;98662.59;;;17.02;100.00
7433;BME280;32233;49.500;7.764;2023-08-12T03:17:11;98664.41;;;17.02;100.00
7433;BME280;32233;49.500;7.764;2023-08-12T03:19:38;98657.88;;;17.09;100.00
7433;BME280;32233;49.500;7.764;2023-08-12T03:22:05;98653.69;;;17.14;100.00
7433;BME280;32233;49.500;7.764;2023-08-12T03:24:33;98649.16;;;17.14;100.00
7433;BME280;32233;49.500;7.764;2023-08-12T03:27:00;98641.66;;;17.11;100.00
7433;BME280;32233;49.500;7.764;2023-08-12T03:29:27;98645.34;;;17.10;100.00
7433;BME280;32233;49.500;7.764;2023-08-12T03:31:54;98638.72;;;17.13;100.00
7433;BME280;32233;49.500;7.764;2023-08-12T03:34:22;98640.59;;;17.12;100.00
7433;BME280;32233;49.500;7.764;2023-08-12T03:36:49;98645.03;;;17.06;100.00
7433;BME280;32233;49.500;7.764;2023-08-12T03:39:18;98651.06;;;17.02;100.00
7433;BME280;32233;49.500;7.764;2023-08-12T03:41:48;98636.19;;;17.06;100.00
7433;BME280;32233;49.500;7.764;2023-08-12T03:44:17;98632.38;;;17.02;100.00
7433;BME280;32233;49.500;7.764;2023-08-12T03:46:43;98634.00;;;17.03;100.00
7433;BME280;32233;49.500;7.764;2023-08-12T03:49:10;98631.34;;;17.03;100.00
7433;BME280;32233;49.500;7.764;2023-08-12T03:51:38;98635.16;;;17.07;100.00
7433;BME280;32233;49.500;7.764;2023-08-12T03:54:04;98639.03;;;16.99;100.00
7433;BME280;32233;49.500;7.764;2023-08-12T03:56:31;98635.75;;;16.97;100.00
7433;BME280;32233;49.500;7.764;2023-08-12T03:59:00;98637.53;;;16.92;100.00
7433;BME280;32233;49.500;7.764;2023-08-12T04:01:27;98644.16;;;16.89;100.00
7433;BME280;32233;49.500;7.764;2023-08-12T04:03:54;98636.72;;;16.91;100.00
7433;BME280;32233;49.500;7.764;2023-08-12T04:06:21;98634.06;;;16.91;100.00
7433;BME280;32233;49.500;7.764;2023-08-12T04:08:48;98632.56;;;16.83;100.00
7433;BME280;32233;49.500;7.764;2023-08-12T04:11:14;98639.09;;;16.76;100.00
7433;BME280;32233;49.500;7.764;2023-08-12T04:13:41;98645.47;;;16.75;100.00
7433;BME280;32233;49.500;7.764;2023-08-12T04:16:07;98642.22;;;16.73;100.00
7433;BME280;32233;49.500;7.764;2023-08-12T04:18:35;98641.63;;;16.71;100.00
7433;BME280;32233;49.500;7.764;2023-08-12T04:21:01;98637.22;;;16.65;100.00
7433;BME280;32233;49.500;7.764;2023-08-12T04:23:28;98622.34;;;16.69;100.00
7433;BME280;32233;49.500;7.764;2023-08-12T04:25:56;98635.84;;;16.74;100.00
7433;BME280;32233;49.500;7.764;2023-08-12T04:28:27;98628.75;;;16.79;100.00
7433;BME280;32233;49.500;7.764;2023-08-12T04:30:53;98623.75;;;16.83;100.00
7433;BME280;32233;49.500;7.764;2023-08-12T04:33:22;98615.88;;;16.76;100.00
7433;BME280;32233;49.500;7.764;2023-08-12T04:35:49;98623.31;;;16.74;100.00
7433;BME280;32233;49.500;7.764;2023-08-12T04:38:17;98617.34;;;16.72;100.00
7433;BME280;32233;49.500;7.764;2023-08-12T04:40:46;98617.16;;;16.74;100.00
7433;BME280;32233;49.500;7.764;2023-08-12T04:43:12;98614.81;;;16.77;100.00
7433;BME280;32233;49.500;7.764;2023-08-12T04:45:40;98618.31;;;16.78;100.00
7433;BME280;32233;49.500;7.764;2023-08-12T04:48:07;98614.81;;;16.77;100.00
7433;BME280;32233;49.500;7.764;2023-08-12T04:50:35;98612.97;;;16.78;100.00
7433;BME280;32233;49.500;7.764;2023-08-12T04:53:01;98608.44;;;16.78;100.00
7433;BME280;32233;49.500;7.764;2023-08-12T04:55:28;98611.34;;;16.77;100.00
7433;BME280;32233;49.500;7.764;2023-08-12T04:57:57;98600.91;;;16.75;100.00
7433;BME280;32233;49.500;7.764;2023-08-12T05:00:23;98611.69;;;16.69;100.00
7433;BME280;32233;49.500;7.764;2023-08-12T05:02:51;98611.13;;;16.67;100.00
7433;BME280;32233;49.500;7.764;2023-08-12T05:05:17;98601.34;;;16.72;100.00
7433;BME280;32233;49.500;7.764;2023-08-12T05:07:44;98599.63;;;16.78;100.00
7433;BME280;32233;49.500;7.764;2023-08-12T05:10:16;98599.81;;;16.88;100.00
7433;BME280;32233;49.500;7.764;2023-08-12T05:12:43;98602.91;;;16.97;100.00
7433;BME280;32233;49.500;7.764;2023-08-12T05:15:10;98604.97;;;17.06;100.00
7433;BME280;32233;49.500;7.764;2023-08-12T05:17:37;98603.28;;;17.17;100.00
7433;BME280;32233;49.500;7.764;2023-08-12T05:20:05;98603.88;;;17.36;100.00
7433;BME280;32233;49.500;7.764;2023-08-12T05:22:32;98598.56;;;17.53;100.00
7433;BME280;32233;49.500;7.764;2023-08-12T05:24:59;98595.63;;;17.71;100.00
7433;BME280;32233;49.500;7.764;2023-08-12T05:27:25;98589.19;;;17.84;100.00
7433;BME280;32233;49.500;7.764;2023-08-12T05:29:52;98597.03;;;17.91;100.00
7433;BME280;32233;49.500;7.764;2023-08-12T05:32:18;98599.63;;;17.86;100.00
7433;BME280;32233;49.500;7.764;2023-08-12T05:34:45;98601.81;;;17.72;100.00
7433;BME280;32233;49.500;7.764;2023-08-12T05:37:11;98598.81;;;17.68;100.00
7433;BME280;32233;49.500;7.764;2023-08-12T05:39:38;98588.00;;;17.63;100.00
7433;BME280;32233;49.500;7.764;2023-08-12T05:42:05;98589.16;;;17.67;100.00
7433;BME280;32233;49.500;7.764;2023-08-12T05:44:31;98600.97;;;17.71;100.00
7433;BME280;32233;49.500;7.764;2023-08-12T05:46:58;98595.25;;;17.79;100.00
7433;BME280;32233;49.500;7.764;2023-08-12T05:49:24;98589.19;;;17.84;100.00
7433;BME280;32233;49.500;7.764;2023-08-12T05:51:51;98598.75;;;17.80;100.00
7433;BME280;32233;49.500;7.764;2023-08-12T05:54:17;98597.63;;;17.76;100.00
7433;BME280;32233;49.500;7.764;2023-08-12T05:56:44;98598.88;;;17.73;100.00
7433;BME280;32233;49.500;7.764;2023-08-12T05:59:10;98606.09;;;17.73;100.00
7433;BME280;32233;49.500;7.764;2023-08-12T06:01:37;98612.03;;;17.75;100.00
7433;BME280;32233;49.500;7.764;2023-08-12T06:04:03;98607.81;;;17.79;100.00
7433;BME280;32233;49.500;7.764;2023-08-12T06:06:30;98621.28;;;17.84;100.00
7433;BME280;32233;49.500;7.764;2023-08-12T06:08:56;98617.94;;;17.94;100.00
7433;BME280;32233;49.500;7.764;2023-08-12T06:11:23;98619.94;;;18.03;100.00
7433;BME280;32233;49.500;7.764;2023-08-12T06:13:49;98617.09;;;18.10;100.00
7433;BME280;32233;49.500;7.764;2023-08-12T06:16:16;98619.38;;;18.18;100.00
7433;BME280;32233;49.500;7.764;2023-08-12T06:18:43;98616.75;;;18.23;100.00
7433;BME280;32233;49.500;7.764;2023-08-12T06:21:09;98626.28;;;18.36;100.00
7433;BME280;32233;49.500;7.764;2023-08-12T06:23:36;98626.97;;;18.48;100.00
7433;BME280;32233;49.500;7.764;2023-08-12T06:26:02;98621.03;;;18.63;100.00
7433;BME280;32233;49.500;7.764;2023-08-12T06:28:29;98619.88;;;18.76;100.00
7433;BME280;32233;49.500;7.764;2023-08-12T06:30:55;98620.84;;;18.92;100.00
7433;BME280;32233;49.500;7.764;2023-08-12T06:33:22;98621.34;;;19.11;100.00
7433;BME280;32233;49.500;7.764;2023-08-12T06:35:50;98623.84;;;19.22;100.00
7433;BME280;32233;49.500;7.764;2023-08-12T06:38:17;98623.38;;;19.30;100.00
7433;BME280;32233;49.500;7.764;2023-08-12T06:40:43;98618.94;;;19.41;100.00
7433;BME280;32233;49.500;7.764;2023-08-12T06:43:10;98614.19;;;19.48;100.00
7433;BME280;32233;49.500;7.764;2023-08-12T06:45:37;98612.81;;;19.46;100.00
7433;BME280;32233;49.500;7.764;2023-08-12T06:48:03;98615.50;;;19.46;100.00
7433;BME280;32233;49.500;7.764;2023-08-12T06:50:30;98611.94;;;19.35;100.00
7433;BME280;32233;49.500;7.764;2023-08-12T06:52:59;98621.78;;;19.29;100.00
7433;BME280;32233;49.500;7.764;2023-08-12T06:55:26;98613.22;;;19.33;100.00
7433;BME280;32233;49.500;7.764;2023-08-12T06:57:52;98617.81;;;19.37;100.00
7433;BME280;32233;49.500;7.764;2023-08-12T07:00:19;98615.94;;;19.38;100.00
7433;BME280;32233;49.500;7.764;2023-08-12T07:02:45;98624.34;;;19.46;100.00
7433;BME280;32233;49.500;7.764;2023-08-12T07:05:12;98627.13;;;19.57;100.00
7433;BME280;32233;49.500;7.764;2023-08-12T07:07:39;98629.91;;;19.67;100.00
7433;BME280;32233;49.500;7.764;2023-08-12T07:10:05;98627.38;;;19.87;100.00
7433;BME280;32233;49.500;7.764;2023-08-12T07:12:32;98627.91;;;20.21;100.00
7433;BME280;32233;49.500;7.764;2023-08-12T07:14:59;98630.50;;;20.53;100.00
7433;BME280;32233;49.500;7.764;2023-08-12T07:17:26;98622.16;;;20.50;100.00
7433;BME280;32233;49.500;7.764;2023-08-12T07:19:52;98632.78;;;20.35;100.00
7433;BME280;32233;49.500;7.764;2023-08-12T07:22:19;98629.50;;;20.22;100.00
7433;BME280;32233;49.500;7.764;2023-08-12T07:24:46;98630.09;;;20.35;100.00
7433;BME280;32233;49.500;7.764;2023-08-12T07:27:13;98641.72;;;20.45;100.00
7433;BME280;32233;49.500;7.764;2023-08-12T07:29:40;98653.84;;;20.53;100.00
7433;BME280;32233;49.500;7.764;2023-08-12T07:32:06;98642.78;;;21.07;100.00
7433;BME280;32233;49.500;7.764;2023-08-12T07:34:33;98642.91;;;21.63;100.00
7433;BME280;32233;49.500;7.764;2023-08-12T07:36:59;98650.06;;;21.12;100.00
7433;BME280;32233;49.500;7.764;2023-08-12T07:39:26;98653.34;;;20.61;100.00
7433;BME280;32233;49.500;7.764;2023-08-12T07:41:52;98642.97;;;20.33;100.00
7433;BME280;32233;49.500;7.764;2023-08-12T07:44:19;98652.56;;;20.18;100.00
7433;BME280;32233;49.500;7.764;2023-08-12T07:46:45;98640.72;;;20.14;100.00
7433;BME280;32233;49.500;7.764;2023-08-12T07:49:12;98650.31;;;20.05;100.00
7433;BME280;32233;49.500;7.764;2023-08-12T07:51:38;98658.88;;;20.02;100.00
7433;BME280;32233;49.500;7.764;2023-08-12T07:54:05;98655.91;;;19.98;100.00
7433;BME280;32233;49.500;7.764;2023-08-12T07:56:32;98655.94;;;20.03;100.00
7433;BME280;32233;49.500;7.764;2023-08-12T07:58:59;98657.84;;;20.08;100.00
7433;BME280;32233;49.500;7.764;2023-08-12T08:01:25;98645.44;;;20.39;100.00
7433;BME280;32233;49.500;7.764;2023-08-12T08:03:52;98639.66;;;20.15;100.00
7433;BME280;32233;49.500;7.764;2023-08-12T08:06:19;98641.38;;;19.94;100.00
7433;BME280;32233;49.500;7.764;2023-08-12T08:08:45;98631.22;;;19.96;100.00
7433;BME280;32233;49.500;7.764;2023-08-12T08:11:12;98634.16;;;20.00;100.00
7433;BME280;32233;49.500;7.764;2023-08-12T08:13:38;98625.47;;;20.67;100.00
7433;BME280;32233;49.500;7.764;2023-08-12T08:16:05;98608.94;;;21.26;100.00
7433;BME280;32233;49.500;7.764;2023-08-12T08:18:32;98614.94;;;21.85;100.00
7433;BME280;32233;49.500;7.764;2023-08-12T08:20:58;98618.13;;;22.22;100.00
7433;BME280;32233;49.500;7.764;2023-08-12T08:23:31;98615.19;;;21.98;100.00
7433;BME280;32233;49.500;7.764;2023-08-12T08:25:58;98620.31;;;21.85;100.00
7433;BME280;32233;49.500;7.764;2023-08-12T08:28:27;98624.34;;;21.82;100.00
7433;BME280;32233;49.500;7.764;2023-08-12T08:30:54;98620.56;;;22.19;100.00
7433;BME280;32233;49.500;7.764;2023-08-12T08:33:21;98629.84;;;22.67;100.00
7433;BME280;32233;49.500;7.764;2023-08-12T08:35:47;98616.28;;;22.93;100.00
7433;BME280;32233;49.500;7.764;2023-08-12T08:38:14;98621.50;;;22.64;100.00
7433;BME280;32233;49.500;7.764;2023-08-12T08:40:41;98611.56;;;22.49;100.00
7433;BME280;32233;49.500;7.764;2023-08-12T08:43:08;98620.38;;;22.75;100.00
7433;BME280;32233;49.500;7.764;2023-08-12T08:45:37;98612.53;;;22.84;100.00
7433;BME280;32233;49.500;7.764;2023-08-12T08:48:04;98607.75;;;23.20;100.00
7433;BME280;32233;49.500;7.764;2023-08-12T08:50:32;98607.22;;;23.23;100.00
7433;BME280;32233;49.500;7.764;2023-08-12T08:52:59;98613.53;;;23.03;100.00
7433;BME280;32233;49.500;7.764;2023-08-12T08:55:27;98617.47;;;22.56;100.00
7433;BME280;32233;49.500;7.764;2023-08-12T08:57:54;98618.41;;;22.26;100.00
7433;BME280;32233;49.500;7.764;2023-08-12T09:00:28;98609.78;;;22.19;100.00
7433;BME280;32233;49.500;7.764;2023-08-12T09:02:57;98616.47;;;22.37;100.00
7433;BME280;32233;49.500;7.764;2023-08-12T09:05:25;98616.34;;;22.72;100.00
7433;BME280;32233;49.500;7.764;2023-08-12T09:07:54;98620.91;;;22.72;100.00
7433;BME280;32233;49.500;7.764;2023-08-12T09:10:21;98631.28;;;22.39;100.00
7433;BME280;32233;49.500;7.764;2023-08-12T09:12:56;98632.69;;;22.21;100.00
7433;BME280;32233;49.500;7.764;2023-08-12T09:15:23;98635.88;;;22.29;100.00
7433;BME280;32233;49.500;7.764;2023-08-12T09:17:50;98663.91;;;22.22;100.00
7433;BME280;32233;49.500;7.764;2023-08-12T09:20:17;98667.13;;;22.09;100.00
7433;BME280;32233;49.500;7.764;2023-08-12T09:22:43;98667.69;;;21.81;100.00
7433;BME280;32233;49.500;7.764;2023-08-12T09:25:10;98660.41;;;21.86;100.00
7433;BME280;32233;49.500;7.764;2023-08-12T09:27:37;98650.72;;;21.90;100.00
7433;BME280;32233;49.500;7.764;2023-08-12T09:30:07;98658.78;;;21.75;100.00
7433;BME280;32233;49.500;7.764;2023-08-12T09:32:35;98681.63;;;21.52;100.00
7433;BME280;32233;49.500;7.764;2023-08-12T09:35:02;98682.34;;;21.22;100.00
7433;BME280;32233;49.500;7.764;2023-08-12T09:37:30;98669.44;;;21.19;100.00
7433;BME280;32233;49.500;7.764;2023-08-12T09:39:57;98666.28;;;21.32;100.00
7433;BME280;32233;49.500;7.764;2023-08-12T09:42:24;98663.09;;;21.56;100.00
7433;BME280;32233;49.500;7.764;2023-08-12T09:44:51;98688.34;;;21.49;100.00
7433;BME280;32233;49.500;7.764;2023-08-12T09:47:18;98704.69;;;21.27;100.00
7433;BME280;32233;49.500;7.764;2023-08-12T09:49:45;98696.25;;;21.03;100.00
7433;BME280;32233;49.500;7.764;2023-08-12T09:52:12;98683.56;;;20.94;100.00
7433;BME280;32233;49.500;7.764;2023-08-12T09:54:40;98672.78;;;20.78;100.00
7433;BME280;32233;49.500;7.764;2023-08-12T09:57:08;98681.34;;;20.70;100.00
7433;BME280;32233;49.500;7.764;2023-08-12T09:59:37;98694.19;;;20.58;100.00
7433;BME280;32233;49.500;7.764;2023-08-12T10:02:04;98691.66;;;20.46;100.00
7433;BME280;32233;49.500;7.764;2023-08-12T10:04:44;98665.66;;;20.52;100.00
7433;BME280;32233;49.500;7.764;2023-08-12T10:07:12;98658.63;;;20.46;100.00
7433;BME280;32233;49.500;7.764;2023-08-12T10:09:39;98683.22;;;20.33;100.00
7433;BME280;32233;49.500;7.764;2023-08-12T10:12:07;98682.09;;;20.23;100.00
7433;BME280;32233;49.500;7.764;2023-08-12T10:14:34;98656.75;;;20.04;100.00
7433;BME280;32233;49.500;7.764;2023-08-12T10:17:01;98664.53;;;19.68;100.00
7433;BME280;32233;49.500;7.764;2023-08-12T10:19:32;98688.59;;;19.63;100.00
7433;BME280;32233;49.500;7.764;2023-08-12T10:22:02;98669.22;;;19.56;100.00
7433;BME280;32233;49.500;7.764;2023-08-12T10:24:29;98675.06;;;19.53;100.00
7433;BME280;32233;49.500;7.764;2023-08-12T10:26:56;98670.13;;;19.40;100.00
7433;BME280;32233;49.500;7.764;2023-08-12T10:29:23;98675.22;;;19.41;100.00
7433;BME280;32233;49.500;7.764;2023-08-12T10:31:51;98682.50;;;19.46;100.00
7433;BME280;32233;49.500;7.764;2023-08-12T10:34:21;98683.31;;;19.46;100.00
7433;BME280;32233;49.500;7.764;2023-08-12T10:36:54;98688.00;;;19.34;100.00
7433;BME280;32233;49.500;7.764;2023-08-12T10:39:31;98685.84;;;19.31;100.00
7433;BME280;32233;49.500;7.764;2023-08-12T10:41:59;98672.38;;;19.26;100.00
7433;BME280;32233;49.500;7.764;2023-08-12T10:44:40;98666.22;;;19.25;100.00
7433;BME280;32233;49.500;7.764;2023-08-12T10:47:10;98661.31;;;19.17;100.00
7433;BME280;32233;49.500;7.764;2023-08-12T10:49:47;98658.66;;;19.22;100.00
7433;BME280;32233;49.500;7.764;2023-08-12T10:54:55;98631.06;;;19.49;100.00
7433;BME280;32233;49.500;7.764;2023-08-12T10:57:37;98635.34;;;19.50;100.00
7433;BME280;32233;49.500;7.764;2023-08-12T11:00:11;98630.44;;;20.01;100.00
7433;BME280;32233;49.500;7.764;2023-08-12T11:02:39;98622.50;;;20.64;100.00
7433;BME280;32233;49.500;7.764;2023-08-12T11:05:08;98619.50;;;21.33;100.00
7433;BME280;32233;49.500;7.764;2023-08-12T11:07:41;98621.13;;;21.85;100.00
7433;BME280;32233;49.500;7.764;2023-08-12T11:10:16;98614.09;;;21.99;100.00
7433;BME280;32233;49.500;7.764;2023-08-12T11:13:02;98608.44;;;21.96;100.00
7433;BME280;32233;49.500;7.764;2023-08-12T11:15:31;98583.94;;;22.08;100.00
7433;BME280;32233;49.500;7.764;2023-08-12T11:18:02;98570.13;;;22.45;100.00
7433;BME280;32233;49.500;7.764;2023-08-12T11:20:30;98570.28;;;22.74;100.00
7433;BME280;32233;49.500;7.764;2023-08-12T11:25:48;98588.94;;;23.83;100.00
7433;BME280;32233;49.500;7.764;2023-08-12T11:28:18;98584.78;;;24.68;100.00
7433;BME280;32233;49.500;7.764;2023-08-12T11:30:47;98598.59;;;25.09;100.00
7433;BME280;32233;49.500;7.764;2023-08-12T11:33:16;98600.13;;;24.73;100.00
7433;BME280;32233;49.500;7.764;2023-08-12T11:35:45;98590.56;;;24.08;100.00
7433;BME280;32233;49.500;7.764;2023-08-12T11:38:11;98579.28;;;24.30;100.00
7433;BME280;32233;49.500;7.764;2023-08-12T11:40:39;98566.47;;;24.84;100.00
7433;BME280;32233;49.500;7.764;2023-08-12T11:43:06;98559.75;;;24.14;100.00
7433;BME280;32233;49.500;7.764;2023-08-12T11:45:32;98559.41;;;23.68;100.00
7433;BME280;32233;49.500;7.764;2023-08-12T11:50:40;98587.78;;;25.09;100.00
7433;BME280;32233;49.500;7.764;2023-08-12T11:53:06;98590.63;;;26.16;98.24
7433;BME280;32233;49.500;7.764;2023-08-12T11:55:33;98583.44;;;26.53;92.85
7433;BME280;32233;49.500;7.764;2023-08-12T11:58:00;98586.94;;;26.53;86.03
7433;BME280;32233;49.500;7.764;2023-08-12T12:00:27;98576.13;;;26.89;85.38
7433;BME280;32233;49.500;7.764;2023-08-12T12:02:55;98582.44;;;27.80;83.18
7433;BME280;32233;49.500;7.764;2023-08-12T12:05:23;98573.22;;;28.21;80.50
7433;BME280;32233;49.500;7.764;2023-08-12T12:07:52;98563.78;;;28.67;80.98
7433;BME280;32233;49.500;7.764;2023-08-12T12:10:21;98577.44;;;28.35;80.61
7433;BME280;32233;49.500;7.764;2023-08-12T12:12:48;98572.00;;;29.10;73.88
7433;BME280;32233;49.500;7.764;2023-08-12T12:15:15;98581.34;;;28.52;73.67
7433;BME280;32233;49.500;7.764;2023-08-12T12:17:44;98594.59;;;27.01;84.05
7433;BME280;32233;49.500;7.764;2023-08-12T12:20:11;98585.69;;;25.72;92.82
7433;BME280;32233;49.500;7.764;2023-08-12T12:22:41;98587.28;;;25.02;94.98
7433;BME280;32233;49.500;7.764;2023-08-12T12:25:14;98580.75;;;24.65;97.80
7433;BME280;32233;49.500;7.764;2023-08-12T12:27:42;98580.59;;;24.38;100.00
7433;BME280;32233;49.500;7.764;2023-08-12T12:30:11;98571.47;;;24.53;100.00
7433;BME280;32233;49.500;7.764;2023-08-12T12:32:38;98587.13;;;24.03;100.00
7433;BME280;32233;49.500;7.764;2023-08-12T12:35:06;98588.47;;;23.76;100.00
7433;BME280;32233;49.500;7.764;2023-08-12T12:37:34;98593.03;;;23.41;100.00
7433;BME280;32233;49.500;7.764;2023-08-12T12:40:00;98588.56;;;23.27;100.00
7433;BME280;32233;49.500;7.764;2023-08-12T12:42:27;98586.78;;;23.12;100.00
7433;BME280;32233;49.500;7.764;2023-08-12T12:44:55;98595.09;;;23.55;100.00
7433;BME280;32233;49.500;7.764;2023-08-12T12:47:22;98585.41;;;25.40;96.38
7433;BME280;32233;49.500;7.764;2023-08-12T12:49:48;98580.97;;;25.12;99.21
7433;BME280;32233;49.500;7.764;2023-08-12T12:52:15;98584.50;;;24.69;100.00
7433;BME280;32233;49.500;7.764;2023-08-12T12:54:41;98592.03;;;24.25;100.00
7433;BME280;32233;49.500;7.764;2023-08-12T12:57:08;98592.25;;;23.75;100.00
7433;BME280;32233;49.500;7.764;2023-08-12T12:59:34;98590.63;;;23.40;100.00
7433;BME280;32233;49.500;7.764;2023-08-12T13:02:01;98596.66;;;23.27;100.00
7433;BME280;32233;49.500;7.764;2023-08-12T13:04:28;98600.63;;;23.39;100.00
7433;BME280;32233;49.500;7.764;2023-08-12T13:06:54;98597.94;;;23.73;100.00
7433;BME280;32233;49.500;7.764;2023-08-12T13:09:21;98599.78;;;23.78;100.00
7433;BME280;32233;49.500;7.764;2023-08-12T13:11:49;98598.63;;;24.42;99.72